Time;durP1;ratioP1;P1;durP2;ratioP2;P2;SDS_P1;SDS_P2;PMS_P1;PMS_P2;Temp;Humidity;BMP_temperature;BMP_pressure;BME280_temperature;BME280_humidity;BME280_pressure;Samples;Min_cycle;Max_cycle;Signal;HPM_P1;HPM_P2
2022/12/06 00:00:47;;;;;;;14.40;10.43;;;10.50;89.40;;;;;;10863629;32;20020;-73
2022/12/06 00:06:53;;;;;;;13.43;9.85;;;10.50;89.50;;;;;;10863352;32;20023;-73
2022/12/06 00:12:55;;;;;;;13.50;9.85;;;10.40;89.40;;;;;;10859100;32;20050;-73
2022/12/06 00:18:58;;;;;;;12.23;8.90;;;10.40;89.50;;;;;;10863134;32;20028;-73
2022/12/06 00:25:00;;;;;;;11.52;8.32;;;10.40;89.50;;;;;;10862888;32;20050;-73
2022/12/06 00:31:05;;;;;;;11.30;7.07;;;10.50;89.10;;;;;;10862795;32;20325;-73
2022/12/06 00:37:06;;;;;;;13.95;8.70;;;10.30;89.20;;;;;;10862756;32;20024;-75
2022/12/06 00:43:09;;;;;;;10.85;7.35;;;10.30;89.30;;;;;;10861868;32;20036;-76
2022/12/06 00:49:11;;;;;;;9.90;6.50;;;10.20;89.10;;;;;;10849079;32;20051;-75
2022/12/06 00:55:14;;;;;;;9.80;6.12;;;10.20;89.30;;;;;;10861656;32;20031;-75
2022/12/06 01:01:20;;;;;;;8.73;5.53;;;10.20;89.20;;;;;;10861735;32;20027;-75
2022/12/06 01:07:23;;;;;;;8.73;5.40;;;10.20;89.20;;;;;;10861853;32;20024;-75
2022/12/06 01:13:25;;;;;;;8.93;6.12;;;10.20;89.10;;;;;;10857504;32;20046;-76
2022/12/06 01:19:27;;;;;;;8.95;5.20;;;10.10;89.20;;;;;;10860686;32;20071;-75
2022/12/06 01:25:31;;;;;;;12.95;8.05;;;10.30;89.20;;;;;;10861197;32;20027;-75
2022/12/06 01:31:33;;;;;;;9.57;6.37;;;10.50;89.00;;;;;;11015132;27;20037;-75
2022/12/06 01:37:35;;;;;;;19.52;12.27;;;10.60;88.90;;;;;;11055556;32;20013;-76
2022/12/06 01:43:40;;;;;;;35.35;25.48;;;10.40;88.60;;;;;;11051696;32;20052;-75
2022/12/06 01:49:46;;;;;;;16.40;10.68;;;10.20;88.70;;;;;;11055141;32;20045;-75
2022/12/06 01:55:48;;;;;;;22.83;17.17;;;10.00;88.70;;;;;;11054483;32;20037;-76
2022/12/06 02:01:51;;;;;;;29.52;24.58;;;9.80;88.70;;;;;;11056278;32;20399;-76
2022/12/06 02:07:55;;;;;;;45.22;22.02;;;9.70;88.60;;;;;;11060542;32;20362;-76
2022/12/06 02:13:58;;;;;;;31.05;23.35;;;9.60;88.70;;;;;;11062311;32;20056;-76
2022/12/06 02:20:12;;;;;;;31.35;22.40;;;9.60;88.60;;;;;;11062070;32;20014;-75
2022/12/06 02:26:50;;;;;;;36.80;23.17;;;9.50;88.50;;;;;;11061870;32;20026;-76
2022/12/06 02:32:58;;;;;;;18.65;12.55;;;9.50;88.60;;;;;;11061676;32;20014;-75
2022/12/06 02:39:08;;;;;;;98.10;27.30;;;9.50;88.70;;;;;;11061371;32;20022;-76
2022/12/06 02:45:13;;;;;;;;;;;9.50;88.40;;;;;;11061348;32;20132;-75
2022/12/06 02:51:16;;;;;;;20.80;13.65;;;9.20;88.30;;;;;;11060988;32;19970;-75
2022/12/06 02:57:44;;;;;;;66.00;20.60;;;9.20;88.40;;;;;;11060840;32;20013;-75
2022/12/06 03:04:07;;;;;;;17.70;10.68;;;9.20;88.60;;;;;;11061672;32;20384;-75
2022/12/06 03:10:16;;;;;;;9.95;7.57;;;9.30;88.70;;;;;;11060361;32;20417;-75
2022/12/06 03:16:33;;;;;;;20.50;14.02;;;9.30;88.80;;;;;;11059894;32;20323;-75
2022/12/06 03:22:43;;;;;;;15.98;11.63;;;9.30;88.50;;;;;;11059631;32;20026;-75
2022/12/06 03:28:51;;;;;;;26.73;16.48;;;9.30;88.60;;;;;;11009674;32;20019;-75
2022/12/06 03:34:56;;;;;;;23.85;14.95;;;9.20;88.50;;;;;;10899377;32;20061;-75
2022/12/06 03:41:02;;;;;;;15.93;11.00;;;9.10;88.50;;;;;;10901563;32;20015;-75
2022/12/06 03:47:19;;;;;;;21.58;13.00;;;9.00;88.30;;;;;;10901415;32;20023;-75
2022/12/06 03:53:21;;;;;;;32.38;15.60;;;9.00;88.60;;;;;;10901057;32;20062;-75
2022/12/06 03:59:23;;;;;;;39.45;16.83;;;8.90;88.60;;;;;;10900942;32;20049;-76
2022/12/06 04:05:25;;;;;;;30.73;18.10;;;8.90;88.40;;;;;;10900836;32;20042;-75
2022/12/06 04:11:27;;;;;;;31.23;15.68;;;8.70;88.20;;;;;;10900749;32;20027;-75
2022/12/06 04:23:51;;;;;;;133.73;23.50;;;8.60;88.20;;;;;;10898305;32;20050;-75
2022/12/06 04:48:55;;;;;;;8.95;5.40;;;8.80;88.60;;;;;;10899730;32;20023;-74
2022/12/06 04:54:58;;;;;;;7.85;4.40;;;8.90;88.50;;;;;;10899263;32;20054;-75
2022/12/06 05:01:00;;;;;;;10.93;6.93;;;8.90;88.50;;;;;;10895902;32;20050;-75
2022/12/06 05:07:03;;;;;;;12.68;7.50;;;9.00;88.50;;;;;;10899116;32;20041;-75
2022/12/06 05:13:05;;;;;;;14.75;10.57;;;9.20;88.60;;;;;;10898859;32;20019;-75
2022/12/06 05:19:07;;;;;;;16.58;9.55;;;9.20;88.60;;;;;;10897055;32;20015;-75
2022/12/06 05:25:09;;;;;;;8.88;5.85;;;9.50;88.70;;;;;;10896163;32;20019;-75
2022/12/06 05:31:12;;;;;;;15.02;10.90;;;9.60;88.50;;;;;;10897046;32;20073;-75
2022/12/06 05:37:14;;;;;;;14.50;8.50;;;9.40;88.30;;;;;;10898255;32;20046;-75
2022/12/06 05:43:16;;;;;;;8.85;5.68;;;9.10;88.30;;;;;;10903642;32;20054;-75
2022/12/06 05:49:19;;;;;;;8.82;5.90;;;9.00;88.60;;;;;;10956451;32;20042;-75
2022/12/06 05:55:22;;;;;;;9.15;5.15;;;8.90;88.50;;;;;;10904725;32;20081;-75
2022/12/06 06:01:25;;;;;;;18.73;11.63;;;8.70;88.50;;;;;;10904335;32;20023;-75
2022/12/06 06:07:28;;;;;;;9.75;5.22;;;8.80;88.80;;;;;;10904351;32;20020;-75
2022/12/06 06:13:31;;;;;;;11.18;5.20;;;8.70;88.40;;;;;;10903282;32;20360;-75
2022/12/06 06:19:33;;;;;;;13.88;9.07;;;8.70;88.60;;;;;;10903913;32;20348;-75
2022/12/06 06:25:39;;;;;;;63.67;15.55;;;8.80;88.50;;;;;;10902858;32;20026;-75
2022/12/06 06:31:45;;;;;;;7.85;5.30;;;8.90;88.40;;;;;;10955043;32;20042;-75
2022/12/06 06:37:48;;;;;;;8.63;5.50;;;8.80;88.20;;;;;;10899080;32;20063;-75
2022/12/06 06:43:59;;;;;;;7.68;5.00;;;9.00;88.20;;;;;;10903045;32;20388;-75
2022/12/06 06:50:01;;;;;;;11.20;6.60;;;9.00;87.90;;;;;;10898558;32;20023;-75
2022/12/06 06:56:12;;;;;;;11.85;7.70;;;9.20;88.10;;;;;;10901516;32;20411;-75
2022/12/06 07:02:16;;;;;;;8.48;5.60;;;9.30;87.70;;;;;;10899893;32;20046;-75
2022/12/06 07:08:30;;;;;;;7.53;4.87;;;9.40;87.80;;;;;;10899694;32;20019;-75
2022/12/06 07:14:33;;;;;;;14.35;10.63;;;9.50;87.40;;;;;;10933504;32;20029;-75
2022/12/06 07:21:02;;;;;;;8.85;6.47;;;9.80;88.10;;;;;;10897362;32;20348;-75
2022/12/06 07:27:04;;;;;;;14.18;9.43;;;9.90;87.50;;;;;;10904745;32;20023;-75
2022/12/06 07:33:06;;;;;;;13.32;8.65;;;10.20;87.50;;;;;;10897901;32;20294;-76
2022/12/06 07:39:08;;;;;;;9.85;7.55;;;10.50;87.30;;;;;;10898753;32;20023;-75
2022/12/06 07:45:13;;;;;;;10.82;7.37;;;10.70;87.00;;;;;;10897769;32;20023;-76
2022/12/06 07:51:15;;;;;;;9.10;5.85;;;10.80;86.70;;;;;;10961880;32;20074;-75
2022/12/06 07:57:17;;;;;;;17.08;10.30;;;10.90;86.20;;;;;;10899570;32;20019;-75
2022/12/06 08:03:19;;;;;;;10.90;8.18;;;10.70;86.20;;;;;;10897826;32;20057;-76
2022/12/06 08:09:21;;;;;;;18.40;7.80;;;11.00;86.80;;;;;;10899196;32;20388;-75
2022/12/06 08:15:23;;;;;;;10.85;7.15;;;11.20;86.80;;;;;;10897187;32;20115;-76
2022/12/06 08:25:37;;;;;;;9.55;5.78;;;11.10;86.50;;;;;;10627084;32;12328553;-77
2022/12/06 08:31:39;;;;;;;8.43;4.70;;;11.30;86.80;;;;;;10969207;32;20027;-77
2022/12/06 08:37:41;;;;;;;8.30;4.97;;;10.80;86.50;;;;;;10970867;32;20035;-77
2022/12/06 08:43:43;;;;;;;10.00;5.45;;;10.50;86.90;;;;;;10953173;32;20034;-77
2022/12/06 08:49:45;;;;;;;7.90;4.82;;;10.30;87.30;;;;;;10996974;32;20034;-77
2022/12/06 08:55:57;;;;;;;15.75;8.68;;;10.00;87.00;;;;;;11010823;32;20018;-77
2022/12/06 09:02:00;;;;;;;12.52;5.90;;;9.70;87.30;;;;;;11007024;32;20052;-77
2022/12/06 09:08:02;;;;;;;7.93;4.40;;;9.80;87.60;;;;;;10995180;32;20026;-77
2022/12/06 09:14:06;;;;;;;6.72;4.57;;;10.30;87.40;;;;;;11004035;32;20030;-77
2022/12/06 09:20:08;;;;;;;12.10;7.35;;;10.30;86.80;;;;;;11001444;32;20430;-77
2022/12/06 09:26:11;;;;;;;9.77;6.03;;;10.70;87.50;;;;;;10986943;32;20404;-77
2022/12/06 09:32:13;;;;;;;9.23;5.40;;;10.70;86.60;;;;;;10989614;32;20011;-76
2022/12/06 09:38:17;;;;;;;11.60;6.80;;;10.60;87.00;;;;;;10969093;32;20062;-77
2022/12/06 09:44:37;;;;;;;10.35;5.87;;;10.60;87.20;;;;;;10981312;32;20053;-77
2022/12/06 09:51:01;;;;;;;13.68;7.45;;;11.20;87.60;;;;;;10983383;32;20050;-77
2022/12/06 09:57:30;;;;;;;9.75;6.75;;;11.50;87.30;;;;;;10979844;32;20035;-77
2022/12/06 10:03:49;;;;;;;11.77;6.62;;;11.70;87.00;;;;;;10968220;32;20050;-77
2022/12/06 10:10:08;;;;;;;11.82;7.68;;;11.70;87.10;;;;;;10980300;32;20430;-76
2022/12/06 10:16:09;;;;;;;16.70;10.32;;;11.90;87.00;;;;;;10979286;32;20404;-77
2022/12/06 10:22:35;;;;;;;19.30;11.57;;;11.90;87.10;;;;;;10978926;32;20034;-77
2022/12/06 10:28:57;;;;;;;16.00;9.85;;;11.90;87.40;;;;;;10980861;32;20052;-77
2022/12/06 10:35:17;;;;;;;17.52;11.55;;;12.00;87.90;;;;;;10965992;32;20030;-77
2022/12/06 10:41:35;;;;;;;15.00;8.85;;;12.20;88.20;;;;;;10978322;32;20112;-76
2022/12/06 10:47:43;;;;;;;16.37;7.90;;;12.30;87.70;;;;;;10977104;32;20030;-76
2022/12/06 10:54:24;;;;;;;15.80;9.15;;;12.50;88.00;;;;;;10966204;32;20399;-72
2022/12/06 11:00:30;;;;;;;18.85;13.18;;;12.40;87.80;;;;;;10981748;32;20054;-74
2022/12/06 11:06:48;;;;;;;17.50;9.40;;;12.20;88.80;;;;;;10977202;32;20046;-74
2022/12/06 11:13:01;;;;;;;17.77;12.35;;;12.10;88.80;;;;;;10979928;32;20022;-74
2022/12/06 11:19:37;;;;;;;13.93;9.50;;;12.20;89.50;;;;;;10980909;32;20376;-74
2022/12/06 11:26:06;;;;;;;18.40;11.98;;;12.20;89.00;;;;;;10779038;33;20433;-74
2022/12/06 11:32:12;;;;;;;18.57;10.80;;;12.10;89.10;;;;;;10681332;33;20033;-74
2022/12/06 11:38:16;;;;;;;28.95;21.70;;;12.00;89.30;;;;;;10679296;33;20026;-76
2022/12/06 11:44:26;;;;;;;21.35;14.90;;;12.00;88.90;;;;;;10669837;33;20025;-76
2022/12/06 11:50:33;;;;;;;19.25;12.90;;;11.70;89.20;;;;;;10642000;33;20041;-76
2022/12/06 11:56:37;;;;;;;14.32;7.72;;;11.70;89.00;;;;;;10635686;33;20048;-75
2022/12/06 12:02:41;;;;;;;20.70;13.02;;;11.60;89.40;;;;;;10734267;33;20063;-75
2022/12/06 12:08:58;;;;;;;16.02;10.23;;;11.80;89.70;;;;;;10889142;32;20019;-76
2022/12/06 12:15:00;;;;;;;13.32;8.07;;;12.20;89.20;;;;;;10941353;32;20019;-75
2022/12/06 12:21:05;;;;;;;20.95;14.35;;;12.40;88.60;;;;;;10937762;32;20053;-76
2022/12/06 12:27:26;;;;;;;14.40;10.07;;;12.50;88.60;;;;;;10936867;32;20031;-77
2022/12/06 12:33:29;;;;;;;16.10;10.90;;;12.70;88.40;;;;;;10940487;32;20038;-76
2022/12/06 12:39:43;;;;;;;13.57;8.43;;;12.90;88.50;;;;;;10938785;32;20023;-74
2022/12/06 12:46:05;;;;;;;12.07;7.60;;;12.60;88.30;;;;;;10940989;32;20045;-74
2022/12/06 12:52:31;;;;;;;13.25;7.60;;;12.40;89.00;;;;;;10937087;32;20023;-72
2022/12/06 12:58:33;;;;;;;20.67;14.18;;;12.60;89.30;;;;;;10939530;32;20019;-72
2022/12/06 13:04:40;;;;;;;21.15;14.85;;;12.90;89.30;;;;;;10938880;32;20049;-72
2022/12/06 13:10:45;;;;;;;20.05;13.80;;;13.20;88.90;;;;;;10942845;32;20015;-74
2022/12/06 13:16:52;;;;;;;16.08;10.80;;;13.30;88.60;;;;;;10944238;32;20024;-74
2022/12/06 13:23:34;;;;;;;16.15;10.02;;;13.30;88.40;;;;;;10945565;32;20328;-76
2022/12/06 13:29:49;;;;;;;16.75;11.95;;;13.20;88.60;;;;;;10755552;33;20489;-76
2022/12/06 13:35:59;;;;;;;13.95;10.10;;;13.30;88.60;;;;;;10755537;33;20025;-76
2022/12/06 13:42:19;;;;;;;13.77;9.32;;;13.40;88.20;;;;;;10757421;33;20547;-76
2022/12/06 13:48:23;;;;;;;12.37;8.32;;;13.50;88.00;;;;;;10756465;33;20439;-76
2022/12/06 13:54:30;;;;;;;14.57;9.65;;;13.50;87.80;;;;;;10752755;33;20047;-76
2022/12/06 14:00:33;;;;;;;12.98;9.23;;;13.20;88.10;;;;;;10762325;32;20464;-76
2022/12/06 14:06:45;;;;;;;16.92;12.15;;;13.30;88.20;;;;;;10933363;32;20329;-76
2022/12/06 14:12:58;;;;;;;14.43;8.85;;;13.40;87.70;;;;;;10941983;32;20022;-76
2022/12/06 14:19:32;;;;;;;12.32;7.87;;;13.40;87.70;;;;;;10945435;32;20015;-74
2022/12/06 14:25:34;;;;;;;14.60;8.68;;;13.50;88.10;;;;;;10931887;32;20014;-75
2022/12/06 14:31:38;;;;;;;13.07;9.52;;;13.50;88.00;;;;;;10942192;32;20077;-75
2022/12/06 14:37:52;;;;;;;17.17;11.10;;;13.30;88.00;;;;;;10941859;32;20049;-76
2022/12/06 14:43:54;;;;;;;17.58;11.05;;;13.20;87.90;;;;;;10942748;32;20053;-75
2022/12/06 14:56:30;;;;;;;11.43;7.22;;;13.00;87.60;;;;;;10943938;32;20061;-75
2022/12/06 15:02:33;;;;;;;13.90;8.43;;;12.90;87.50;;;;;;10928493;32;20306;-75
2022/12/06 15:08:37;;;;;;;15.57;10.68;;;12.80;87.60;;;;;;10926619;32;20394;-76
2022/12/06 15:14:38;;;;;;;9.80;6.15;;;12.70;87.50;;;;;;10939196;32;20041;-75
2022/12/06 15:20:40;;;;;;;17.42;12.10;;;12.70;87.50;;;;;;10955057;32;20031;-75
2022/12/06 15:26:42;;;;;;;14.70;9.00;;;12.60;87.70;;;;;;10943144;32;20014;-76
2022/12/06 15:32:44;;;;;;;10.20;7.03;;;12.70;87.20;;;;;;10939653;32;20041;-76
2022/12/06 15:38:47;;;;;;;21.27;12.25;;;12.60;87.30;;;;;;10938887;32;20077;-76
2022/12/06 15:44:49;;;;;;;20.90;16.27;;;12.60;87.00;;;;;;10941933;32;20027;-76
2022/12/06 15:50:54;;;;;;;24.60;17.50;;;12.70;86.70;;;;;;10941784;32;20057;-76
2022/12/06 15:56:56;;;;;;;16.67;10.75;;;12.70;86.60;;;;;;10942056;32;20073;-76
2022/12/06 16:02:58;;;;;;;16.83;9.68;;;12.80;86.00;;;;;;10939067;32;20019;-75
2022/12/06 16:09:00;;;;;;;18.30;12.88;;;12.50;86.10;;;;;;10941767;32;20050;-75
2022/12/06 16:15:03;;;;;;;15.43;10.07;;;11.90;86.00;;;;;;10938015;32;20023;-76
2022/12/06 16:21:06;;;;;;;25.88;16.60;;;11.30;86.80;;;;;;10926998;26;20033;-75
2022/12/06 16:27:09;;;;;;;21.12;16.48;;;11.60;87.20;;;;;;10861223;32;20020;-75
2022/12/06 16:33:17;;;;;;;25.20;18.17;;;12.00;86.40;;;;;;10854902;32;20054;-75
2022/12/06 16:39:19;;;;;;;22.80;15.35;;;12.20;85.40;;;;;;10853381;32;20028;-76
2022/12/06 16:45:21;;;;;;;19.60;14.43;;;12.20;85.00;;;;;;10859523;32;20325;-75
2022/12/06 16:51:24;;;;;;;20.10;14.85;;;12.10;84.70;;;;;;10857866;32;20074;-75
2022/12/06 16:57:26;;;;;;;23.83;16.30;;;12.10;84.80;;;;;;10843760;32;20027;-73
2022/12/06 17:03:28;;;;;;;24.55;16.80;;;12.00;84.60;;;;;;10845602;32;20031;-73
2022/12/06 17:09:30;;;;;;;26.10;16.90;;;12.00;84.60;;;;;;10860376;32;20397;-73
2022/12/06 17:15:33;;;;;;;22.55;17.27;;;12.10;84.50;;;;;;10838707;32;20043;-73
2022/12/06 17:21:35;;;;;;;19.20;14.40;;;12.10;84.70;;;;;;10863896;32;20023;-73
2022/12/06 17:27:38;;;;;;;21.33;15.27;;;11.80;84.90;;;;;;10866145;32;20089;-73
2022/12/06 17:33:40;;;;;;;16.37;13.48;;;11.30;85.70;;;;;;10862278;32;20024;-73
2022/12/06 17:39:42;;;;;;;30.60;22.40;;;11.30;85.80;;;;;;10865864;32;20024;-73
2022/12/06 17:45:44;;;;;;;18.77;14.48;;;11.40;85.70;;;;;;10862513;32;20058;-73
2022/12/06 17:51:47;;;;;;;21.05;15.93;;;11.60;85.70;;;;;;10864938;32;20035;-73
2022/12/06 17:57:49;;;;;;;28.67;21.10;;;11.60;85.40;;;;;;10860873;32;20023;-73
2022/12/06 18:03:53;;;;;;;21.48;16.50;;;11.60;85.40;;;;;;10848208;32;20031;-73
2022/12/06 18:09:55;;;;;;;22.80;17.67;;;11.70;85.50;;;;;;10862757;32;20015;-73
2022/12/06 18:15:57;;;;;;;18.25;13.57;;;11.80;85.20;;;;;;10861893;32;20059;-73
2022/12/06 18:22:00;;;;;;;19.73;13.93;;;11.80;85.20;;;;;;10844484;32;20036;-73
2022/12/06 18:28:02;;;;;;;17.92;12.10;;;11.60;85.10;;;;;;10857909;32;20353;-73
2022/12/06 18:34:04;;;;;;;20.65;14.93;;;11.20;85.50;;;;;;10863443;32;20024;-73
2022/12/06 18:40:07;;;;;;;25.62;16.30;;;11.20;85.50;;;;;;10847106;32;20427;-73
2022/12/06 18:46:20;;;;;;;18.85;12.50;;;11.30;85.10;;;;;;10850895;32;20341;-73
2022/12/06 18:52:22;;;;;;;27.67;22.02;;;11.30;85.00;;;;;;10859733;32;20050;-73
2022/12/06 18:58:24;;;;;;;22.10;16.45;;;11.20;85.00;;;;;;10846506;32;20050;-73
2022/12/06 19:04:27;;;;;;;28.85;20.90;;;11.20;84.90;;;;;;10862054;32;20054;-71
2022/12/06 19:10:29;;;;;;;33.03;21.27;;;11.30;84.90;;;;;;10855150;32;20365;-73
2022/12/06 19:16:44;;;;;;;24.65;16.23;;;11.00;84.90;;;;;;10824841;33;20451;-73
2022/12/06 19:22:45;;;;;;;22.60;18.15;;;11.10;85.40;;;;;;10824348;33;20016;-73
2022/12/06 19:28:47;;;;;;;24.40;17.67;;;10.70;85.40;;;;;;10825810;33;20081;-73
2022/12/06 19:34:49;;;;;;;35.15;24.73;;;10.70;85.50;;;;;;10809609;33;20028;-73
2022/12/06 19:40:52;;;;;;;23.92;18.73;;;10.70;85.20;;;;;;10825556;33;20057;-74
2022/12/06 19:46:54;;;;;;;22.17;16.92;;;10.80;84.70;;;;;;10825419;33;20028;-74
2022/12/06 19:52:56;;;;;;;28.23;19.55;;;10.70;84.60;;;;;;10825235;33;20028;-73
2022/12/06 19:58:58;;;;;;;20.40;14.25;;;10.50;84.30;;;;;;10811830;33;20431;-74
2022/12/06 20:05:00;;;;;;;60.42;25.77;;;10.00;84.60;;;;;;10822013;33;20028;-74
2022/12/06 20:11:04;;;;;;;17.23;13.32;;;9.60;85.10;;;;;;10821880;33;20046;-74
2022/12/06 20:17:18;;;;;;;18.27;15.85;;;9.20;85.30;;;;;;10824407;32;20028;-74
2022/12/06 20:23:20;;;;;;;31.92;23.85;;;9.20;86.10;;;;;;10824268;33;20322;-74
2022/12/06 20:29:22;;;;;;;19.42;15.32;;;9.20;85.80;;;;;;10824215;33;20024;-73
2022/12/06 20:35:26;;;;;;;18.80;14.48;;;9.00;85.40;;;;;;10824124;33;20416;-73
2022/12/06 20:41:30;;;;;;;14.93;12.13;;;8.70;85.50;;;;;;10847708;32;20067;-73
2022/12/06 20:47:41;;;;;;;19.80;16.02;;;8.70;86.10;;;;;;10860895;32;20040;-73
2022/12/06 20:53:48;;;;;;;15.60;11.90;;;8.70;85.90;;;;;;10860851;32;20058;-73
2022/12/06 20:59:49;;;;;;;19.37;15.32;;;8.70;85.70;;;;;;10860575;32;20042;-73
2022/12/06 21:06:02;;;;;;;12.23;9.30;;;8.50;85.50;;;;;;10860449;32;20027;-73
2022/12/06 21:12:04;;;;;;;16.42;11.52;;;8.30;86.10;;;;;;10847184;32;20028;-74
2022/12/06 21:18:07;;;;;;;13.27;10.00;;;8.40;86.30;;;;;;10860274;32;20015;-73
2022/12/06 21:24:12;;;;;;;16.12;10.23;;;8.50;86.00;;;;;;10859619;32;20024;-74
2022/12/06 21:30:18;;;;;;;11.50;9.98;;;8.40;86.10;;;;;;10862838;32;20393;-73
2022/12/06 21:36:20;;;;;;;10.52;8.15;;;8.40;86.30;;;;;;10863463;32;20417;-73
2022/12/06 21:42:25;;;;;;;12.80;8.48;;;8.30;86.20;;;;;;10865941;32;20069;-73
2022/12/06 21:48:27;;;;;;;22.00;16.05;;;8.20;86.20;;;;;;10865884;32;20074;-73
2022/12/06 21:54:29;;;;;;;30.62;15.10;;;8.20;86.40;;;;;;10865462;32;20027;-73
2022/12/06 22:00:31;;;;;;;16.48;13.45;;;8.40;86.50;;;;;;10852285;32;20028;-73
2022/12/06 22:06:35;;;;;;;18.30;11.77;;;8.80;86.00;;;;;;10861722;32;20032;-73
2022/12/06 22:12:37;;;;;;;10.98;9.52;;;8.80;85.40;;;;;;10864990;32;20059;-73
2022/12/06 22:18:40;;;;;;;12.13;9.70;;;8.50;85.50;;;;;;10864849;32;20049;-73
2022/12/06 22:24:43;;;;;;;10.75;8.40;;;8.40;85.90;;;;;;10864542;32;20027;-73
2022/12/06 22:30:45;;;;;;;15.80;11.73;;;8.20;85.90;;;;;;10864458;32;20050;-73
2022/12/06 22:36:47;;;;;;;10.80;8.48;;;8.00;85.90;;;;;;10860322;32;20050;-74
2022/12/06 22:42:49;;;;;;;22.73;12.82;;;8.00;86.30;;;;;;10861445;32;20032;-73
2022/12/06 22:48:52;;;;;;;12.30;9.07;;;7.80;85.40;;;;;;10864053;32;20024;-73
2022/12/06 22:54:54;;;;;;;13.93;9.93;;;7.60;85.90;;;;;;10863974;32;20088;-73
2022/12/06 23:00:56;;;;;;;9.55;6.55;;;7.60;86.10;;;;;;10863565;32;20141;-74
2022/12/06 23:07:03;;;;;;;9.57;7.10;;;7.60;86.00;;;;;;10863674;32;20067;-74
2022/12/06 23:13:05;;;;;;;12.63;7.62;;;7.50;85.70;;;;;;10859114;32;20050;-76
2022/12/06 23:19:08;;;;;;;11.98;9.80;;;7.30;85.70;;;;;;10863188;32;20054;-76
2022/12/06 23:25:10;;;;;;;15.23;8.70;;;7.40;86.40;;;;;;10862806;32;20047;-76
2022/12/06 23:31:22;;;;;;;9.43;7.43;;;7.50;85.90;;;;;;10862843;32;20057;-76
2022/12/06 23:37:24;;;;;;;9.88;7.28;;;7.40;85.70;;;;;;10860992;32;20020;-76
2022/12/06 23:43:25;;;;;;;9.50;6.90;;;7.20;86.00;;;;;;10848149;32;20050;-76
2022/12/06 23:49:27;;;;;;;10.70;7.78;;;7.40;86.20;;;;;;10860031;32;20094;-76
2022/12/06 23:55:29;;;;;;;10.35;7.45;;;7.30;85.70;;;;;;10861676;32;20031;-76
